Drakes Branch, Virginia
Current Conditions -  °F | °C
As of 2:15 AM on Wednesday 22 Oct 2014 (Local Time) from KCXE Reporting Station
Overcast Overcast  
Wind Chill: 52°   Ceiling: 5500
Heat Index: 52°   Visibility: 10mi
Dew Point: 50°   Wind: 8mph
Humidity: 93%   Direction: 290°WNW
Pressure: 29.91"   Gusts: NA
Location:  36.99°N, 78.6°W
Report Text: KCXE 220615Z AUTO 29007KT 270V330 10SM SCT040 OVC055 11/10 A2991 RMK AO1 P0001 T01110100
Loading
Personal Weather Stations






























Interactive Weather Map
Tropical Storm Tracking
New forecast layout! Learn more

10-Day Weather Forecast

Advertisements
Track Severe Weather on mobile